sensor_id;sensor_type;location;lat;lon;timestamp;temperature;humidity
31695;DHT22;18289;51.330;4.946;2023-02-01T00:01:12;5.10;99.90
31695;DHT22;18289;51.330;4.946;2023-02-01T00:03:38;5.10;99.90
31695;DHT22;18289;51.330;4.946;2023-02-01T00:06:04;5.10;99.90
31695;DHT22;18289;51.330;4.946;2023-02-01T00:08:30;5.00;99.90
31695;DHT22;18289;51.330;4.946;2023-02-01T00:11:09;5.00;99.90
31695;DHT22;18289;51.330;4.946;2023-02-01T00:13:38;5.10;99.90
31695;DHT22;18289;51.330;4.946;2023-02-01T00:18:37;5.10;99.90
31695;DHT22;18289;51.330;4.946;2023-02-01T00:21:03;5.10;99.90
31695;DHT22;18289;51.330;4.946;2023-02-01T00:23:32;5.10;99.90
31695;DHT22;18289;51.330;4.946;2023-02-01T00:26:01;5.20;99.90
31695;DHT22;18289;51.330;4.946;2023-02-01T00:28:27;5.20;99.90
31695;DHT22;18289;51.330;4.946;2023-02-01T00:30:56;5.30;99.90
31695;DHT22;18289;51.330;4.946;2023-02-01T00:33:22;5.20;99.90
31695;DHT22;18289;51.330;4.946;2023-02-01T00:35:48;5.20;99.90
31695;DHT22;18289;51.330;4.946;2023-02-01T00:38:14;5.10;99.90
31695;DHT22;18289;51.330;4.946;2023-02-01T00:40:39;5.10;99.90
31695;DHT22;18289;51.330;4.946;2023-02-01T00:43:05;5.10;99.90
31695;DHT22;18289;51.330;4.946;2023-02-01T00:45:31;5.10;99.90
31695;DHT22;18289;51.330;4.946;2023-02-01T00:47:56;5.10;99.90
31695;DHT22;18289;51.330;4.946;2023-02-01T00:50:22;5.20;99.90
31695;DHT22;18289;51.330;4.946;2023-02-01T00:52:47;5.10;99.90
31695;DHT22;18289;51.330;4.946;2023-02-01T00:55:13;5.00;99.90
31695;DHT22;18289;51.330;4.946;2023-02-01T00:57:39;5.00;99.90
31695;DHT22;18289;51.330;4.946;2023-02-01T01:00:05;5.00;99.90
31695;DHT22;18289;51.330;4.946;2023-02-01T01:02:31;4.90;99.90
31695;DHT22;18289;51.330;4.946;2023-02-01T01:04:56;4.90;99.90
31695;DHT22;18289;51.330;4.946;2023-02-01T01:07:22;4.90;99.90
31695;DHT22;18289;51.330;4.946;2023-02-01T01:09:48;4.90;99.90
31695;DHT22;18289;51.330;4.946;2023-02-01T01:12:13;4.80;99.90
31695;DHT22;18289;51.330;4.946;2023-02-01T01:14:39;4.80;99.90
31695;DHT22;18289;51.330;4.946;2023-02-01T01:17:05;4.80;99.90
31695;DHT22;18289;51.330;4.946;2023-02-01T01:19:30;4.80;99.90
31695;DHT22;18289;51.330;4.946;2023-02-01T01:21:56;4.90;99.90
31695;DHT22;18289;51.330;4.946;2023-02-01T01:24:21;4.70;99.90
31695;DHT22;18289;51.330;4.946;2023-02-01T01:26:47;4.70;99.90
31695;DHT22;18289;51.330;4.946;2023-02-01T01:29:13;4.80;99.90
31695;DHT22;18289;51.330;4.946;2023-02-01T01:31:39;4.70;99.90
31695;DHT22;18289;51.330;4.946;2023-02-01T01:34:04;4.80;99.90
31695;DHT22;18289;51.330;4.946;2023-02-01T01:36:30;4.70;99.90
31695;DHT22;18289;51.330;4.946;2023-02-01T01:38:56;4.80;99.90
31695;DHT22;18289;51.330;4.946;2023-02-01T01:41:27;4.80;99.90
31695;DHT22;18289;51.330;4.946;2023-02-01T01:43:55;4.80;99.90
31695;DHT22;18289;51.330;4.946;2023-02-01T01:46:35;4.80;99.90
31695;DHT22;18289;51.330;4.946;2023-02-01T01:49:09;4.90;99.90
31695;DHT22;18289;51.330;4.946;2023-02-01T01:51:42;4.90;99.90
31695;DHT22;18289;51.330;4.946;2023-02-01T01:54:14;4.90;99.90
31695;DHT22;18289;51.330;4.946;2023-02-01T01:56:43;4.90;99.90
31695;DHT22;18289;51.330;4.946;2023-02-01T01:59:11;4.80;99.90
31695;DHT22;18289;51.330;4.946;2023-02-01T02:01:38;4.80;99.90
31695;DHT22;18289;51.330;4.946;2023-02-01T02:04:04;4.80;99.90
31695;DHT22;18289;51.330;4.946;2023-02-01T02:07:05;4.80;99.90
31695;DHT22;18289;51.330;4.946;2023-02-01T02:09:33;4.90;99.90
31695;DHT22;18289;51.330;4.946;2023-02-01T02:11:59;4.90;99.90
31695;DHT22;18289;51.330;4.946;2023-02-01T02:14:25;4.90;99.90
31695;DHT22;18289;51.330;4.946;2023-02-01T02:36:42;4.90;99.90
31695;DHT22;18289;51.330;4.946;2023-02-01T02:39:24;4.90;99.90
31695;DHT22;18289;51.330;4.946;2023-02-01T02:42:12;5.00;99.90
31695;DHT22;18289;51.330;4.946;2023-02-01T02:45:33;5.00;99.90
31695;DHT22;18289;51.330;4.946;2023-02-01T02:51:34;5.30;99.90
31695;DHT22;18289;51.330;4.946;2023-02-01T02:54:28;5.30;99.90
31695;DHT22;18289;51.330;4.946;2023-02-01T02:57:43;5.40;99.90
31695;DHT22;18289;51.330;4.946;2023-02-01T03:00:30;5.50;99.90
31695;DHT22;18289;51.330;4.946;2023-02-01T03:03:15;5.50;99.90
31695;DHT22;18289;51.330;4.946;2023-02-01T03:05:59;5.60;99.90
31695;DHT22;18289;51.330;4.946;2023-02-01T03:08:27;5.70;99.90
31695;DHT22;18289;51.330;4.946;2023-02-01T03:13:46;5.70;99.90
31695;DHT22;18289;51.330;4.946;2023-02-01T03:16:16;5.80;99.90
31695;DHT22;18289;51.330;4.946;2023-02-01T03:19:11;5.80;99.90
31695;DHT22;18289;51.330;4.946;2023-02-01T03:21:58;5.80;99.90
31695;DHT22;18289;51.330;4.946;2023-02-01T03:24:46;5.80;99.90
31695;DHT22;18289;51.330;4.946;2023-02-01T03:29:50;5.70;99.90
31695;DHT22;18289;51.330;4.946;2023-02-01T03:32:17;5.80;99.90
31695;DHT22;18289;51.330;4.946;2023-02-01T03:34:43;5.80;99.90
31695;DHT22;18289;51.330;4.946;2023-02-01T03:37:12;5.80;99.90
31695;DHT22;18289;51.330;4.946;2023-02-01T03:40:01;5.80;99.90
31695;DHT22;18289;51.330;4.946;2023-02-01T03:42:39;5.80;99.90
31695;DHT22;18289;51.330;4.946;2023-02-01T03:45:14;5.70;99.90
31695;DHT22;18289;51.330;4.946;2023-02-01T03:47:45;5.70;99.90
31695;DHT22;18289;51.330;4.946;2023-02-01T03:50:22;5.70;99.90
31695;DHT22;18289;51.330;4.946;2023-02-01T03:53:04;5.80;99.90
31695;DHT22;18289;51.330;4.946;2023-02-01T03:55:31;5.80;99.90
31695;DHT22;18289;51.330;4.946;2023-02-01T03:58:18;5.90;99.90
31695;DHT22;18289;51.330;4.946;2023-02-01T04:01:05;5.70;99.90
31695;DHT22;18289;51.330;4.946;2023-02-01T04:03:31;5.70;99.90
31695;DHT22;18289;51.330;4.946;2023-02-01T04:05:57;5.70;99.90
31695;DHT22;18289;51.330;4.946;2023-02-01T04:08:23;5.70;99.90
31695;DHT22;18289;51.330;4.946;2023-02-01T04:10:49;5.80;99.90
31695;DHT22;18289;51.330;4.946;2023-02-01T04:13:15;5.80;99.90
31695;DHT22;18289;51.330;4.946;2023-02-01T04:15:41;5.80;99.90
31695;DHT22;18289;51.330;4.946;2023-02-01T04:18:06;5.80;99.90
31695;DHT22;18289;51.330;4.946;2023-02-01T04:20:32;5.80;99.90
31695;DHT22;18289;51.330;4.946;2023-02-01T04:22:58;5.70;99.90
31695;DHT22;18289;51.330;4.946;2023-02-01T04:25:23;5.70;99.90
31695;DHT22;18289;51.330;4.946;2023-02-01T04:27:51;5.70;99.90
31695;DHT22;18289;51.330;4.946;2023-02-01T04:30:17;5.70;99.90
31695;DHT22;18289;51.330;4.946;2023-02-01T04:32:43;5.60;99.90
31695;DHT22;18289;51.330;4.946;2023-02-01T04:35:09;5.60;99.90
31695;DHT22;18289;51.330;4.946;2023-02-01T04:37:35;5.50;99.90
31695;DHT22;18289;51.330;4.946;2023-02-01T04:40:00;5.50;99.90
31695;DHT22;18289;51.330;4.946;2023-02-01T04:42:28;5.60;99.90
31695;DHT22;18289;51.330;4.946;2023-02-01T04:44:54;5.40;99.90
31695;DHT22;18289;51.330;4.946;2023-02-01T04:47:20;5.40;99.90
31695;DHT22;18289;51.330;4.946;2023-02-01T04:49:45;5.30;99.90
31695;DHT22;18289;51.330;4.946;2023-02-01T04:52:11;5.30;99.90
31695;DHT22;18289;51.330;4.946;2023-02-01T04:54:37;5.40;99.90
31695;DHT22;18289;51.330;4.946;2023-02-01T04:57:03;5.40;99.90
31695;DHT22;18289;51.330;4.946;2023-02-01T04:59:28;5.40;99.90
31695;DHT22;18289;51.330;4.946;2023-02-01T05:01:54;5.40;99.90
31695;DHT22;18289;51.330;4.946;2023-02-01T05:04:20;5.40;99.90
31695;DHT22;18289;51.330;4.946;2023-02-01T05:06:46;5.30;99.90
31695;DHT22;18289;51.330;4.946;2023-02-01T05:09:11;5.30;99.90
31695;DHT22;18289;51.330;4.946;2023-02-01T05:11:37;5.20;99.90
31695;DHT22;18289;51.330;4.946;2023-02-01T05:14:22;5.10;99.90
31695;DHT22;18289;51.330;4.946;2023-02-01T05:16:47;5.10;99.90
31695;DHT22;18289;51.330;4.946;2023-02-01T05:19:13;5.10;99.90
31695;DHT22;18289;51.330;4.946;2023-02-01T05:21:39;5.10;99.90
31695;DHT22;18289;51.330;4.946;2023-02-01T05:24:04;5.10;99.90
31695;DHT22;18289;51.330;4.946;2023-02-01T05:26:39;5.00;99.90
31695;DHT22;18289;51.330;4.946;2023-02-01T05:29:05;5.00;99.90
31695;DHT22;18289;51.330;4.946;2023-02-01T05:31:31;5.00;99.90
31695;DHT22;18289;51.330;4.946;2023-02-01T05:33:56;4.90;99.90
31695;DHT22;18289;51.330;4.946;2023-02-01T05:36:22;4.90;99.90
31695;DHT22;18289;51.330;4.946;2023-02-01T05:38:48;4.90;99.90
31695;DHT22;18289;51.330;4.946;2023-02-01T05:41:14;4.90;99.90
31695;DHT22;18289;51.330;4.946;2023-02-01T05:43:39;4.80;99.90
31695;DHT22;18289;51.330;4.946;2023-02-01T05:46:05;4.80;99.90
31695;DHT22;18289;51.330;4.946;2023-02-01T05:48:31;4.80;99.90
31695;DHT22;18289;51.330;4.946;2023-02-01T05:50:57;4.90;99.90
31695;DHT22;18289;51.330;4.946;2023-02-01T05:53:22;5.00;99.90
31695;DHT22;18289;51.330;4.946;2023-02-01T05:55:48;5.10;99.90
31695;DHT22;18289;51.330;4.946;2023-02-01T05:58:14;5.10;99.90
31695;DHT22;18289;51.330;4.946;2023-02-01T06:00:39;5.10;99.90
31695;DHT22;18289;51.330;4.946;2023-02-01T06:03:05;5.20;99.90
31695;DHT22;18289;51.330;4.946;2023-02-01T06:05:31;5.20;99.90
31695;DHT22;18289;51.330;4.946;2023-02-01T06:07:57;5.30;99.90
31695;DHT22;18289;51.330;4.946;2023-02-01T06:10:23;5.30;99.90
31695;DHT22;18289;51.330;4.946;2023-02-01T06:12:49;5.30;99.90
31695;DHT22;18289;51.330;4.946;2023-02-01T06:15:15;5.40;99.90
31695;DHT22;18289;51.330;4.946;2023-02-01T06:17:42;5.40;99.90
31695;DHT22;18289;51.330;4.946;2023-02-01T06:20:10;5.40;99.90
31695;DHT22;18289;51.330;4.946;2023-02-01T06:22:36;5.40;99.90
31695;DHT22;18289;51.330;4.946;2023-02-01T06:25:03;5.40;99.90
31695;DHT22;18289;51.330;4.946;2023-02-01T06:27:29;5.40;99.90
31695;DHT22;18289;51.330;4.946;2023-02-01T06:29:55;5.30;99.90
31695;DHT22;18289;51.330;4.946;2023-02-01T06:32:21;5.30;99.90
31695;DHT22;18289;51.330;4.946;2023-02-01T06:34:46;5.30;99.90
31695;DHT22;18289;51.330;4.946;2023-02-01T06:37:12;5.30;99.90
31695;DHT22;18289;51.330;4.946;2023-02-01T06:39:38;5.20;99.90
31695;DHT22;18289;51.330;4.946;2023-02-01T06:42:03;5.20;99.90
31695;DHT22;18289;51.330;4.946;2023-02-01T06:44:29;5.10;99.90
31695;DHT22;18289;51.330;4.946;2023-02-01T06:46:55;5.10;99.90
31695;DHT22;18289;51.330;4.946;2023-02-01T06:49:21;5.10;99.90
31695;DHT22;18289;51.330;4.946;2023-02-01T06:51:47;5.00;99.90
31695;DHT22;18289;51.330;4.946;2023-02-01T06:54:13;5.10;99.90
31695;DHT22;18289;51.330;4.946;2023-02-01T06:56:39;5.10;99.90
31695;DHT22;18289;51.330;4.946;2023-02-01T06:59:05;5.10;99.90
31695;DHT22;18289;51.330;4.946;2023-02-01T07:01:31;5.30;99.90
31695;DHT22;18289;51.330;4.946;2023-02-01T07:03:57;5.30;99.90
31695;DHT22;18289;51.330;4.946;2023-02-01T07:06:23;5.10;99.90
31695;DHT22;18289;51.330;4.946;2023-02-01T07:08:49;5.00;99.90
31695;DHT22;18289;51.330;4.946;2023-02-01T07:11:16;5.00;99.90
31695;DHT22;18289;51.330;4.946;2023-02-01T07:13:42;5.00;99.90
31695;DHT22;18289;51.330;4.946;2023-02-01T07:16:14;4.90;99.90
31695;DHT22;18289;51.330;4.946;2023-02-01T07:18:40;4.80;99.90
31695;DHT22;18289;51.330;4.946;2023-02-01T07:21:06;4.70;99.90
31695;DHT22;18289;51.330;4.946;2023-02-01T07:23:32;4.80;99.90
31695;DHT22;18289;51.330;4.946;2023-02-01T07:26:00;4.70;99.90
31695;DHT22;18289;51.330;4.946;2023-02-01T07:28:29;4.70;99.90
31695;DHT22;18289;51.330;4.946;2023-02-01T07:31:01;4.70;99.90
31695;DHT22;18289;51.330;4.946;2023-02-01T07:33:27;4.70;99.90
31695;DHT22;18289;51.330;4.946;2023-02-01T07:35:53;4.80;99.90
31695;DHT22;18289;51.330;4.946;2023-02-01T07:38:19;4.80;99.90
31695;DHT22;18289;51.330;4.946;2023-02-01T07:40:47;5.00;99.90
31695;DHT22;18289;51.330;4.946;2023-02-01T07:43:13;4.90;99.90
31695;DHT22;18289;51.330;4.946;2023-02-01T07:45:39;4.90;99.90
31695;DHT22;18289;51.330;4.946;2023-02-01T07:48:05;4.90;99.90
31695;DHT22;18289;51.330;4.946;2023-02-01T07:50:31;5.00;99.90
31695;DHT22;18289;51.330;4.946;2023-02-01T07:52:59;5.00;99.90
31695;DHT22;18289;51.330;4.946;2023-02-01T07:55:26;5.10;99.90
31695;DHT22;18289;51.330;4.946;2023-02-01T07:57:52;5.10;99.90
31695;DHT22;18289;51.330;4.946;2023-02-01T08:00:18;5.20;99.90
31695;DHT22;18289;51.330;4.946;2023-02-01T08:03:04;5.20;99.90
31695;DHT22;18289;51.330;4.946;2023-02-01T08:05:30;5.20;99.90
31695;DHT22;18289;51.330;4.946;2023-02-01T08:07:55;5.30;99.90
31695;DHT22;18289;51.330;4.946;2023-02-01T08:10:21;5.40;99.90
31695;DHT22;18289;51.330;4.946;2023-02-01T08:12:47;5.50;99.90
31695;DHT22;18289;51.330;4.946;2023-02-01T08:15:14;5.50;99.90
31695;DHT22;18289;51.330;4.946;2023-02-01T08:17:46;5.70;99.90
31695;DHT22;18289;51.330;4.946;2023-02-01T08:20:12;5.90;99.90
31695;DHT22;18289;51.330;4.946;2023-02-01T08:22:39;6.10;99.90
31695;DHT22;18289;51.330;4.946;2023-02-01T08:25:05;6.20;99.90
31695;DHT22;18289;51.330;4.946;2023-02-01T08:27:33;6.30;99.90
31695;DHT22;18289;51.330;4.946;2023-02-01T08:29:58;6.30;99.90
31695;DHT22;18289;51.330;4.946;2023-02-01T08:32:24;6.50;99.90
31695;DHT22;18289;51.330;4.946;2023-02-01T08:34:50;6.40;99.90
31695;DHT22;18289;51.330;4.946;2023-02-01T08:37:16;6.50;99.90
31695;DHT22;18289;51.330;4.946;2023-02-01T08:39:41;6.50;99.90
31695;DHT22;18289;51.330;4.946;2023-02-01T08:42:10;6.50;99.90
31695;DHT22;18289;51.330;4.946;2023-02-01T08:44:54;6.60;99.90
31695;DHT22;18289;51.330;4.946;2023-02-01T08:47:20;6.50;99.90
31695;DHT22;18289;51.330;4.946;2023-02-01T08:49:46;6.50;99.90
31695;DHT22;18289;51.330;4.946;2023-02-01T08:52:11;6.50;99.90
31695;DHT22;18289;51.330;4.946;2023-02-01T08:54:37;6.50;99.90
31695;DHT22;18289;51.330;4.946;2023-02-01T08:57:05;6.70;99.90
31695;DHT22;18289;51.330;4.946;2023-02-01T08:59:31;6.80;99.90
31695;DHT22;18289;51.330;4.946;2023-02-01T09:01:56;6.90;99.90
31695;DHT22;18289;51.330;4.946;2023-02-01T09:04:22;7.10;99.90
31695;DHT22;18289;51.330;4.946;2023-02-01T09:06:48;7.30;99.90
31695;DHT22;18289;51.330;4.946;2023-02-01T09:09:13;7.30;99.90
31695;DHT22;18289;51.330;4.946;2023-02-01T09:11:39;7.40;99.90
31695;DHT22;18289;51.330;4.946;2023-02-01T09:14:05;7.40;99.90
31695;DHT22;18289;51.330;4.946;2023-02-01T09:16:31;7.30;99.90
31695;DHT22;18289;51.330;4.946;2023-02-01T09:18:57;7.40;99.90
31695;DHT22;18289;51.330;4.946;2023-02-01T09:21:23;7.50;99.90
31695;DHT22;18289;51.330;4.946;2023-02-01T09:23:50;7.70;99.90
31695;DHT22;18289;51.330;4.946;2023-02-01T09:26:16;7.90;99.90
31695;DHT22;18289;51.330;4.946;2023-02-01T09:28:42;8.00;99.90
31695;DHT22;18289;51.330;4.946;2023-02-01T09:31:08;8.10;99.90
31695;DHT22;18289;51.330;4.946;2023-02-01T09:33:33;8.50;99.90
31695;DHT22;18289;51.330;4.946;2023-02-01T09:36:02;8.60;99.90
31695;DHT22;18289;51.330;4.946;2023-02-01T09:38:29;8.80;99.90
31695;DHT22;18289;51.330;4.946;2023-02-01T09:40:55;9.10;99.90
31695;DHT22;18289;51.330;4.946;2023-02-01T09:46:12;9.70;99.90
31695;DHT22;18289;51.330;4.946;2023-02-01T09:48:42;10.00;99.90
31695;DHT22;18289;51.330;4.946;2023-02-01T09:51:34;9.90;99.90
31695;DHT22;18289;51.330;4.946;2023-02-01T09:54:07;9.70;99.90
31695;DHT22;18289;51.330;4.946;2023-02-01T09:57:40;9.70;99.90
31695;DHT22;18289;51.330;4.946;2023-02-01T09:59:46;9.80;99.90
31695;DHT22;18289;51.330;4.946;2023-02-01T10:02:17;9.80;99.90
31695;DHT22;18289;51.330;4.946;2023-02-01T10:04:45;9.80;99.90
31695;DHT22;18289;51.330;4.946;2023-02-01T10:10:27;9.90;99.90
31695;DHT22;18289;51.330;4.946;2023-02-01T10:13:13;9.90;99.90
31695;DHT22;18289;51.330;4.946;2023-02-01T10:26:21;10.30;99.90
31695;DHT22;18289;51.330;4.946;2023-02-01T10:28:53;10.40;99.90
31695;DHT22;18289;51.330;4.946;2023-02-01T10:31:22;10.40;99.90
31695;DHT22;18289;51.330;4.946;2023-02-01T10:33:57;10.20;99.90
31695;DHT22;18289;51.330;4.946;2023-02-01T10:36:29;10.10;99.90
31695;DHT22;18289;51.330;4.946;2023-02-01T10:38:58;9.80;99.90
31695;DHT22;18289;51.330;4.946;2023-02-01T10:41:33;9.80;99.90
31695;DHT22;18289;51.330;4.946;2023-02-01T10:44:00;9.80;99.90
31695;DHT22;18289;51.330;4.946;2023-02-01T10:46:30;10.10;99.90
31695;DHT22;18289;51.330;4.946;2023-02-01T10:48:57;10.80;99.90
31695;DHT22;18289;51.330;4.946;2023-02-01T10:51:36;11.60;99.90
31695;DHT22;18289;51.330;4.946;2023-02-01T10:54:18;12.40;99.90
31695;DHT22;18289;51.330;4.946;2023-02-01T10:56:46;11.80;99.90
31695;DHT22;18289;51.330;4.946;2023-02-01T10:59:19;11.00;99.90
31695;DHT22;18289;51.330;4.946;2023-02-01T11:01:47;10.50;99.90
31695;DHT22;18289;51.330;4.946;2023-02-01T11:04:18;10.10;99.90
31695;DHT22;18289;51.330;4.946;2023-02-01T11:06:55;9.90;99.90
31695;DHT22;18289;51.330;4.946;2023-02-01T11:09:31;9.80;99.90
31695;DHT22;18289;51.330;4.946;2023-02-01T11:11:59;9.70;99.90
31695;DHT22;18289;51.330;4.946;2023-02-01T11:16:57;9.90;99.90
31695;DHT22;18289;51.330;4.946;2023-02-01T11:19:23;9.90;99.90
31695;DHT22;18289;51.330;4.946;2023-02-01T11:21:52;9.80;99.90
31695;DHT22;18289;51.330;4.946;2023-02-01T11:24:28;9.60;99.90
31695;DHT22;18289;51.330;4.946;2023-02-01T11:26:56;9.50;99.90
31695;DHT22;18289;51.330;4.946;2023-02-01T11:29:23;10.10;99.90
31695;DHT22;18289;51.330;4.946;2023-02-01T11:31:57;10.00;99.90
31695;DHT22;18289;51.330;4.946;2023-02-01T11:34:29;10.00;99.90
31695;DHT22;18289;51.330;4.946;2023-02-01T11:36:59;9.90;99.90
31695;DHT22;18289;51.330;4.946;2023-02-01T11:39:29;9.90;99.90
31695;DHT22;18289;51.330;4.946;2023-02-01T11:42:15;9.90;99.90
31695;DHT22;18289;51.330;4.946;2023-02-01T11:44:46;9.90;99.90
31695;DHT22;18289;51.330;4.946;2023-02-01T11:47:27;9.70;99.90
31695;DHT22;18289;51.330;4.946;2023-02-01T11:49:58;9.90;99.90
31695;DHT22;18289;51.330;4.946;2023-02-01T11:52:48;9.90;99.90
31695;DHT22;18289;51.330;4.946;2023-02-01T11:55:35;9.70;99.90
31695;DHT22;18289;51.330;4.946;2023-02-01T12:08:59;9.60;99.90
31695;DHT22;18289;51.330;4.946;2023-02-01T12:30:46;9.80;99.90
31695;DHT22;18289;51.330;4.946;2023-02-01T12:35:58;10.10;99.90
31695;DHT22;18289;51.330;4.946;2023-02-01T12:38:51;10.20;99.90
31695;DHT22;18289;51.330;4.946;2023-02-01T12:42:03;10.10;99.90
31695;DHT22;18289;51.330;4.946;2023-02-01T12:46:58;9.90;99.90
31695;DHT22;18289;51.330;4.946;2023-02-01T12:52:37;10.00;99.90
31695;DHT22;18289;51.330;4.946;2023-02-01T12:57:55;9.90;99.90
31695;DHT22;18289;51.330;4.946;2023-02-01T13:00:32;9.90;99.90
31695;DHT22;18289;51.330;4.946;2023-02-01T13:03:19;9.80;99.90
31695;DHT22;18289;51.330;4.946;2023-02-01T13:08:31;9.60;99.90
31695;DHT22;18289;51.330;4.946;2023-02-01T13:11:09;9.70;99.90
31695;DHT22;18289;51.330;4.946;2023-02-01T13:14:02;9.60;99.90
31695;DHT22;18289;51.330;4.946;2023-02-01T13:16:34;9.60;99.90
31695;DHT22;18289;51.330;4.946;2023-02-01T13:19:10;9.60;99.90
31695;DHT22;18289;51.330;4.946;2023-02-01T13:21:43;9.40;99.90
31695;DHT22;18289;51.330;4.946;2023-02-01T13:24:39;9.50;99.90
31695;DHT22;18289;51.330;4.946;2023-02-01T13:27:14;9.70;99.90
31695;DHT22;18289;51.330;4.946;2023-02-01T13:29:55;9.80;99.90
31695;DHT22;18289;51.330;4.946;2023-02-01T13:32:39;9.90;99.90
31695;DHT22;18289;51.330;4.946;2023-02-01T13:40:37;9.70;99.90
31695;DHT22;18289;51.330;4.946;2023-02-01T13:43:22;9.80;99.90
31695;DHT22;18289;51.330;4.946;2023-02-01T13:45:50;9.70;99.90
31695;DHT22;18289;51.330;4.946;2023-02-01T13:48:56;9.70;99.90
31695;DHT22;18289;51.330;4.946;2023-02-01T13:51:51;9.80;99.90
31695;DHT22;18289;51.330;4.946;2023-02-01T13:56:54;9.70;99.90
31695;DHT22;18289;51.330;4.946;2023-02-01T14:05:03;9.60;99.90
31695;DHT22;18289;51.330;4.946;2023-02-01T14:07:30;9.40;99.90
31695;DHT22;18289;51.330;4.946;2023-02-01T14:09:56;9.40;99.90
31695;DHT22;18289;51.330;4.946;2023-02-01T14:12:48;9.40;99.90
31695;DHT22;18289;51.330;4.946;2023-02-01T14:15:22;9.30;99.90
31695;DHT22;18289;51.330;4.946;2023-02-01T14:17:48;9.30;99.90
31695;DHT22;18289;51.330;4.946;2023-02-01T14:20:40;9.30;99.90
31695;DHT22;18289;51.330;4.946;2023-02-01T14:23:13;9.40;99.90
31695;DHT22;18289;51.330;4.946;2023-02-01T14:25:40;9.30;99.90
31695;DHT22;18289;51.330;4.946;2023-02-01T14:28:32;9.30;99.90
31695;DHT22;18289;51.330;4.946;2023-02-01T14:30:58;9.40;99.90
31695;DHT22;18289;51.330;4.946;2023-02-01T14:33:26;9.40;99.90
31695;DHT22;18289;51.330;4.946;2023-02-01T14:36:13;9.30;99.90
31695;DHT22;18289;51.330;4.946;2023-02-01T14:38:48;9.10;99.90
31695;DHT22;18289;51.330;4.946;2023-02-01T14:41:30;9.30;99.90
31695;DHT22;18289;51.330;4.946;2023-02-01T14:50:00;9.20;99.90
31695;DHT22;18289;51.330;4.946;2023-02-01T14:52:34;9.20;99.90
31695;DHT22;18289;51.330;4.946;2023-02-01T14:55:05;9.10;99.90
31695;DHT22;18289;51.330;4.946;2023-02-01T14:57:34;9.20;99.90
31695;DHT22;18289;51.330;4.946;2023-02-01T15:00:23;9.10;99.90
31695;DHT22;18289;51.330;4.946;2023-02-01T15:02:50;9.20;99.90
31695;DHT22;18289;51.330;4.946;2023-02-01T15:05:30;9.10;99.90
31695;DHT22;18289;51.330;4.946;2023-02-01T15:08:00;9.20;99.90
31695;DHT22;18289;51.330;4.946;2023-02-01T15:10:30;9.20;99.90
31695;DHT22;18289;51.330;4.946;2023-02-01T15:12:57;9.00;99.90
31695;DHT22;18289;51.330;4.946;2023-02-01T15:15:23;9.10;99.90
31695;DHT22;18289;51.330;4.946;2023-02-01T15:17:57;9.10;99.90
31695;DHT22;18289;51.330;4.946;2023-02-01T15:20:29;9.10;99.90
31695;DHT22;18289;51.330;4.946;2023-02-01T15:23:02;9.00;99.90
31695;DHT22;18289;51.330;4.946;2023-02-01T15:25:30;8.90;99.90
31695;DHT22;18289;51.330;4.946;2023-02-01T15:27:56;8.90;99.90
31695;DHT22;18289;51.330;4.946;2023-02-01T15:30:24;8.90;99.90
31695;DHT22;18289;51.330;4.946;2023-02-01T15:32:51;9.00;99.90
31695;DHT22;18289;51.330;4.946;2023-02-01T15:35:44;9.10;99.90
31695;DHT22;18289;51.330;4.946;2023-02-01T15:46:36;8.90;99.90
31695;DHT22;18289;51.330;4.946;2023-02-01T15:49:03;9.10;99.90
31695;DHT22;18289;51.330;4.946;2023-02-01T15:51:31;9.10;99.90
31695;DHT22;18289;51.330;4.946;2023-02-01T15:54:12;9.00;99.90
31695;DHT22;18289;51.330;4.946;2023-02-01T15:56:40;8.90;99.90
31695;DHT22;18289;51.330;4.946;2023-02-01T15:59:15;9.00;99.90
31695;DHT22;18289;51.330;4.946;2023-02-01T16:01:41;8.90;99.90
31695;DHT22;18289;51.330;4.946;2023-02-01T16:04:25;9.00;99.90
31695;DHT22;18289;51.330;4.946;2023-02-01T16:06:57;9.00;99.90
31695;DHT22;18289;51.330;4.946;2023-02-01T16:09:40;8.90;99.90
31695;DHT22;18289;51.330;4.946;2023-02-01T16:14:53;8.90;99.90
31695;DHT22;18289;51.330;4.946;2023-02-01T16:17:28;9.00;99.90
31695;DHT22;18289;51.330;4.946;2023-02-01T16:19:53;8.90;99.90
31695;DHT22;18289;51.330;4.946;2023-02-01T16:22:19;8.70;99.90
31695;DHT22;18289;51.330;4.946;2023-02-01T16:24:45;8.70;99.90
31695;DHT22;18289;51.330;4.946;2023-02-01T16:27:11;8.70;99.90
31695;DHT22;18289;51.330;4.946;2023-02-01T16:29:36;8.70;99.90
31695;DHT22;18289;51.330;4.946;2023-02-01T16:32:02;8.70;99.90
31695;DHT22;18289;51.330;4.946;2023-02-01T16:34:29;8.60;99.90
31695;DHT22;18289;51.330;4.946;2023-02-01T16:36:55;8.70;99.90
31695;DHT22;18289;51.330;4.946;2023-02-01T16:39:23;8.70;99.90
31695;DHT22;18289;51.330;4.946;2023-02-01T16:41:49;8.60;99.90
31695;DHT22;18289;51.330;4.946;2023-02-01T16:44:15;8.60;99.90
31695;DHT22;18289;51.330;4.946;2023-02-01T16:46:43;8.60;99.90
31695;DHT22;18289;51.330;4.946;2023-02-01T16:49:21;8.60;99.90
31695;DHT22;18289;51.330;4.946;2023-02-01T16:51:49;8.60;99.90
31695;DHT22;18289;51.330;4.946;2023-02-01T16:54:16;8.70;99.90
31695;DHT22;18289;51.330;4.946;2023-02-01T16:56:42;8.60;99.90
31695;DHT22;18289;51.330;4.946;2023-02-01T16:59:09;8.60;99.90
31695;DHT22;18289;51.330;4.946;2023-02-01T17:01:35;8.70;99.90
31695;DHT22;18289;51.330;4.946;2023-02-01T17:04:03;8.70;99.90
31695;DHT22;18289;51.330;4.946;2023-02-01T17:06:29;8.80;99.90
31695;DHT22;18289;51.330;4.946;2023-02-01T17:08:58;8.70;99.90
31695;DHT22;18289;51.330;4.946;2023-02-01T17:11:25;8.70;99.90
31695;DHT22;18289;51.330;4.946;2023-02-01T17:13:50;8.70;99.90
31695;DHT22;18289;51.330;4.946;2023-02-01T17:16:28;8.70;99.90
31695;DHT22;18289;51.330;4.946;2023-02-01T17:19:09;8.70;99.90
31695;DHT22;18289;51.330;4.946;2023-02-01T17:21:45;8.60;99.90
31695;DHT22;18289;51.330;4.946;2023-02-01T17:24:16;8.60;99.90
31695;DHT22;18289;51.330;4.946;2023-02-01T17:26:43;8.60;99.90
31695;DHT22;18289;51.330;4.946;2023-02-01T17:29:09;8.70;99.90
31695;DHT22;18289;51.330;4.946;2023-02-01T17:31:40;8.70;99.90
31695;DHT22;18289;51.330;4.946;2023-02-01T17:34:09;8.70;99.90
31695;DHT22;18289;51.330;4.946;2023-02-01T17:36:35;8.70;99.90
31695;DHT22;18289;51.330;4.946;2023-02-01T17:39:02;8.80;99.90
31695;DHT22;18289;51.330;4.946;2023-02-01T17:41:27;8.80;99.90
31695;DHT22;18289;51.330;4.946;2023-02-01T17:43:53;8.90;99.90
31695;DHT22;18289;51.330;4.946;2023-02-01T17:46:19;8.90;99.90
31695;DHT22;18289;51.330;4.946;2023-02-01T17:48:50;8.90;99.90
31695;DHT22;18289;51.330;4.946;2023-02-01T17:51:18;8.90;99.90
31695;DHT22;18289;51.330;4.946;2023-02-01T17:53:44;8.80;99.90
31695;DHT22;18289;51.330;4.946;2023-02-01T17:56:19;8.90;99.90
31695;DHT22;18289;51.330;4.946;2023-02-01T17:58:45;8.90;99.90
31695;DHT22;18289;51.330;4.946;2023-02-01T18:01:14;8.90;99.90
31695;DHT22;18289;51.330;4.946;2023-02-01T18:03:41;8.80;99.90
31695;DHT22;18289;51.330;4.946;2023-02-01T18:06:13;8.90;99.90
31695;DHT22;18289;51.330;4.946;2023-02-01T18:08:39;8.90;99.90
31695;DHT22;18289;51.330;4.946;2023-02-01T18:11:08;8.80;99.90